sensor_id;sensor_type;location;lat;lon;timestamp;P1;durP1;ratioP1;P2;durP2;ratioP2
56419;SDS011;42323;52.170;7.538;2022-08-19T00:01:34;7.53;;;5.75;;
56419;SDS011;42323;52.170;7.538;2022-08-19T00:04:04;6.18;;;5.18;;
56419;SDS011;42323;52.170;7.538;2022-08-19T00:06:34;7.07;;;5.22;;
56419;SDS011;42323;52.170;7.538;2022-08-19T00:09:03;7.18;;;4.97;;
56419;SDS011;42323;52.170;7.538;2022-08-19T00:11:31;10.32;;;5.45;;
56419;SDS011;42323;52.170;7.538;2022-08-19T00:14:01;7.53;;;5.35;;
56419;SDS011;42323;52.170;7.538;2022-08-19T00:16:28;8.07;;;5.47;;
56419;SDS011;42323;52.170;7.538;2022-08-19T00:18:56;7.88;;;5.53;;
56419;SDS011;42323;52.170;7.538;2022-08-19T00:21:23;7.72;;;5.28;;
56419;SDS011;42323;52.170;7.538;2022-08-19T00:23:53;9.82;;;5.57;;
56419;SDS011;42323;52.170;7.538;2022-08-19T00:26:21;8.05;;;5.13;;
56419;SDS011;42323;52.170;7.538;2022-08-19T00:28:47;8.27;;;5.28;;
56419;SDS011;42323;52.170;7.538;2022-08-19T00:31:14;9.52;;;6.35;;
56419;SDS011;42323;52.170;7.538;2022-08-19T00:33:42;10.20;;;5.55;;
56419;SDS011;42323;52.170;7.538;2022-08-19T00:36:10;8.45;;;5.72;;
56419;SDS011;42323;52.170;7.538;2022-08-19T00:38:38;12.35;;;6.30;;
56419;SDS011;42323;52.170;7.538;2022-08-19T00:41:10;7.30;;;5.55;;
56419;SDS011;42323;52.170;7.538;2022-08-19T00:43:39;9.35;;;5.85;;
56419;SDS011;42323;52.170;7.538;2022-08-19T00:46:07;10.10;;;5.57;;
56419;SDS011;42323;52.170;7.538;2022-08-19T00:48:34;7.57;;;5.18;;
56419;SDS011;42323;52.170;7.538;2022-08-19T00:51:03;7.82;;;5.57;;
56419;SDS011;42323;52.170;7.538;2022-08-19T00:53:31;9.43;;;5.55;;
56419;SDS011;42323;52.170;7.538;2022-08-19T00:56:00;9.15;;;6.25;;
56419;SDS011;42323;52.170;7.538;2022-08-19T00:58:31;8.50;;;5.80;;
56419;SDS011;42323;52.170;7.538;2022-08-19T01:01:01;13.90;;;6.55;;
56419;SDS011;42323;52.170;7.538;2022-08-19T01:03:29;10.48;;;6.75;;
56419;SDS011;42323;52.170;7.538;2022-08-19T01:06:16;11.90;;;7.05;;
56419;SDS011;42323;52.170;7.538;2022-08-19T01:08:46;10.43;;;6.68;;
56419;SDS011;42323;52.170;7.538;2022-08-19T01:11:15;8.32;;;5.85;;
56419;SDS011;42323;52.170;7.538;2022-08-19T01:13:43;9.95;;;6.40;;
56419;SDS011;42323;52.170;7.538;2022-08-19T01:16:16;10.48;;;6.53;;
56419;SDS011;42323;52.170;7.538;2022-08-19T01:18:45;12.52;;;6.25;;
56419;SDS011;42323;52.170;7.538;2022-08-19T01:21:22;10.65;;;6.40;;
56419;SDS011;42323;52.170;7.538;2022-08-19T01:23:50;9.55;;;6.68;;
56419;SDS011;42323;52.170;7.538;2022-08-19T01:26:20;8.80;;;6.05;;
56419;SDS011;42323;52.170;7.538;2022-08-19T01:28:51;10.60;;;6.63;;
56419;SDS011;42323;52.170;7.538;2022-08-19T01:31:27;9.27;;;6.40;;
56419;SDS011;42323;52.170;7.538;2022-08-19T01:33:57;9.88;;;6.90;;
56419;SDS011;42323;52.170;7.538;2022-08-19T01:36:26;9.63;;;6.68;;
56419;SDS011;42323;52.170;7.538;2022-08-19T01:38:58;9.95;;;6.57;;
56419;SDS011;42323;52.170;7.538;2022-08-19T01:41:25;10.32;;;6.63;;
56419;SDS011;42323;52.170;7.538;2022-08-19T01:43:53;8.32;;;6.50;;
56419;SDS011;42323;52.170;7.538;2022-08-19T01:46:40;11.38;;;7.22;;
56419;SDS011;42323;52.170;7.538;2022-08-19T01:49:08;13.65;;;7.70;;
56419;SDS011;42323;52.170;7.538;2022-08-19T01:51:36;10.23;;;7.55;;
56419;SDS011;42323;52.170;7.538;2022-08-19T01:54:06;10.32;;;6.47;;
56419;SDS011;42323;52.170;7.538;2022-08-19T01:56:34;11.65;;;6.53;;
56419;SDS011;42323;52.170;7.538;2022-08-19T01:59:02;10.20;;;6.40;;
56419;SDS011;42323;52.170;7.538;2022-08-19T02:01:32;12.07;;;7.00;;
56419;SDS011;42323;52.170;7.538;2022-08-19T02:04:01;12.95;;;7.03;;
56419;SDS011;42323;52.170;7.538;2022-08-19T02:06:28;9.38;;;6.60;;
56419;SDS011;42323;52.170;7.538;2022-08-19T02:08:55;10.02;;;6.70;;
56419;SDS011;42323;52.170;7.538;2022-08-19T02:11:24;9.82;;;7.18;;
56419;SDS011;42323;52.170;7.538;2022-08-19T02:13:54;11.88;;;7.43;;
56419;SDS011;42323;52.170;7.538;2022-08-19T02:16:24;11.23;;;7.15;;
56419;SDS011;42323;52.170;7.538;2022-08-19T02:18:51;11.48;;;7.10;;
56419;SDS011;42323;52.170;7.538;2022-08-19T02:21:18;16.13;;;8.65;;
56419;SDS011;42323;52.170;7.538;2022-08-19T02:23:47;13.30;;;7.88;;
56419;SDS011;42323;52.170;7.538;2022-08-19T02:26:16;12.40;;;7.65;;
56419;SDS011;42323;52.170;7.538;2022-08-19T02:28:43;12.40;;;7.22;;
56419;SDS011;42323;52.170;7.538;2022-08-19T02:31:14;12.80;;;7.05;;
56419;SDS011;42323;52.170;7.538;2022-08-19T02:33:44;12.88;;;7.40;;
56419;SDS011;42323;52.170;7.538;2022-08-19T02:36:11;9.38;;;6.90;;
56419;SDS011;42323;52.170;7.538;2022-08-19T02:38:40;11.88;;;6.97;;
56419;SDS011;42323;52.170;7.538;2022-08-19T02:41:14;11.98;;;6.97;;
56419;SDS011;42323;52.170;7.538;2022-08-19T02:43:44;12.15;;;7.05;;
56419;SDS011;42323;52.170;7.538;2022-08-19T02:46:32;11.98;;;7.80;;
56419;SDS011;42323;52.170;7.538;2022-08-19T02:49:01;10.98;;;6.38;;
56419;SDS011;42323;52.170;7.538;2022-08-19T02:51:35;9.05;;;5.88;;
56419;SDS011;42323;52.170;7.538;2022-08-19T02:54:05;10.88;;;7.22;;
56419;SDS011;42323;52.170;7.538;2022-08-19T02:56:34;12.20;;;6.75;;
56419;SDS011;42323;52.170;7.538;2022-08-19T02:59:03;11.98;;;7.05;;
56419;SDS011;42323;52.170;7.538;2022-08-19T03:01:37;8.60;;;6.60;;
56419;SDS011;42323;52.170;7.538;2022-08-19T03:04:07;9.18;;;6.47;;
56419;SDS011;42323;52.170;7.538;2022-08-19T03:06:36;13.05;;;6.95;;
56419;SDS011;42323;52.170;7.538;2022-08-19T03:09:05;13.00;;;6.95;;
56419;SDS011;42323;52.170;7.538;2022-08-19T03:11:33;11.88;;;7.53;;
56419;SDS011;42323;52.170;7.538;2022-08-19T03:14:00;10.73;;;7.20;;
56419;SDS011;42323;52.170;7.538;2022-08-19T03:16:30;10.43;;;7.60;;
56419;SDS011;42323;52.170;7.538;2022-08-19T03:18:58;11.95;;;8.30;;
56419;SDS011;42323;52.170;7.538;2022-08-19T03:21:27;13.20;;;8.25;;
56419;SDS011;42323;52.170;7.538;2022-08-19T03:23:57;12.98;;;9.48;;
56419;SDS011;42323;52.170;7.538;2022-08-19T03:26:25;14.13;;;9.38;;
56419;SDS011;42323;52.170;7.538;2022-08-19T03:28:52;15.55;;;9.45;;
56419;SDS011;42323;52.170;7.538;2022-08-19T03:31:24;14.27;;;8.77;;
56419;SDS011;42323;52.170;7.538;2022-08-19T03:34:14;14.75;;;8.63;;
56419;SDS011;42323;52.170;7.538;2022-08-19T03:36:44;16.42;;;9.23;;
56419;SDS011;42323;52.170;7.538;2022-08-19T03:39:14;17.35;;;9.63;;
56419;SDS011;42323;52.170;7.538;2022-08-19T03:41:42;12.85;;;9.18;;
56419;SDS011;42323;52.170;7.538;2022-08-19T03:44:14;16.67;;;8.82;;
56419;SDS011;42323;52.170;7.538;2022-08-19T03:46:47;12.32;;;8.20;;
56419;SDS011;42323;52.170;7.538;2022-08-19T03:49:16;13.30;;;8.02;;
56419;SDS011;42323;52.170;7.538;2022-08-19T03:51:45;17.15;;;9.27;;
56419;SDS011;42323;52.170;7.538;2022-08-19T03:54:14;13.85;;;9.13;;
56419;SDS011;42323;52.170;7.538;2022-08-19T03:56:43;15.02;;;8.88;;
56419;SDS011;42323;52.170;7.538;2022-08-19T03:59:12;14.80;;;8.73;;
56419;SDS011;42323;52.170;7.538;2022-08-19T04:01:41;13.65;;;8.13;;
56419;SDS011;42323;52.170;7.538;2022-08-19T04:04:09;11.88;;;8.60;;
56419;SDS011;42323;52.170;7.538;2022-08-19T04:06:36;13.88;;;8.68;;
56419;SDS011;42323;52.170;7.538;2022-08-19T04:09:06;13.98;;;9.02;;
56419;SDS011;42323;52.170;7.538;2022-08-19T04:11:37;12.95;;;8.23;;
56419;SDS011;42323;52.170;7.538;2022-08-19T04:14:14;11.63;;;8.60;;
56419;SDS011;42323;52.170;7.538;2022-08-19T04:16:45;17.95;;;8.63;;
56419;SDS011;42323;52.170;7.538;2022-08-19T04:19:14;12.63;;;7.65;;
56419;SDS011;42323;52.170;7.538;2022-08-19T04:21:44;13.07;;;8.45;;
56419;SDS011;42323;52.170;7.538;2022-08-19T04:24:13;13.80;;;9.00;;
56419;SDS011;42323;52.170;7.538;2022-08-19T04:26:40;15.13;;;9.82;;
56419;SDS011;42323;52.170;7.538;2022-08-19T04:29:11;15.75;;;9.48;;
56419;SDS011;42323;52.170;7.538;2022-08-19T04:31:42;15.05;;;8.48;;
56419;SDS011;42323;52.170;7.538;2022-08-19T04:34:12;16.60;;;9.57;;
56419;SDS011;42323;52.170;7.538;2022-08-19T04:36:40;13.07;;;9.00;;
56419;SDS011;42323;52.170;7.538;2022-08-19T04:39:15;13.93;;;8.88;;
56419;SDS011;42323;52.170;7.538;2022-08-19T04:41:43;13.50;;;8.70;;
56419;SDS011;42323;52.170;7.538;2022-08-19T04:47:01;13.27;;;8.05;;
56419;SDS011;42323;52.170;7.538;2022-08-19T04:49:36;14.18;;;9.27;;
56419;SDS011;42323;52.170;7.538;2022-08-19T04:52:03;15.65;;;8.82;;
56419;SDS011;42323;52.170;7.538;2022-08-19T04:54:32;16.83;;;9.75;;
56419;SDS011;42323;52.170;7.538;2022-08-19T04:57:05;16.80;;;9.90;;
56419;SDS011;42323;52.170;7.538;2022-08-19T04:59:35;14.65;;;9.55;;
56419;SDS011;42323;52.170;7.538;2022-08-19T05:02:04;18.13;;;10.48;;
56419;SDS011;42323;52.170;7.538;2022-08-19T05:04:31;16.13;;;10.15;;
56419;SDS011;42323;52.170;7.538;2022-08-19T05:06:59;16.95;;;9.98;;
56419;SDS011;42323;52.170;7.538;2022-08-19T05:09:30;16.80;;;10.13;;
56419;SDS011;42323;52.170;7.538;2022-08-19T05:12:17;17.48;;;10.10;;
56419;SDS011;42323;52.170;7.538;2022-08-19T05:14:44;19.75;;;11.65;;
56419;SDS011;42323;52.170;7.538;2022-08-19T05:17:15;16.15;;;10.13;;
56419;SDS011;42323;52.170;7.538;2022-08-19T05:19:54;19.48;;;11.10;;
56419;SDS011;42323;52.170;7.538;2022-08-19T05:22:41;16.38;;;10.15;;
56419;SDS011;42323;52.170;7.538;2022-08-19T05:25:11;17.92;;;9.82;;
56419;SDS011;42323;52.170;7.538;2022-08-19T05:27:41;21.55;;;10.70;;
56419;SDS011;42323;52.170;7.538;2022-08-19T05:30:08;18.92;;;11.43;;
56419;SDS011;42323;52.170;7.538;2022-08-19T05:32:37;21.05;;;11.45;;
56419;SDS011;42323;52.170;7.538;2022-08-19T05:35:04;16.48;;;10.73;;
56419;SDS011;42323;52.170;7.538;2022-08-19T05:37:33;17.80;;;10.85;;
56419;SDS011;42323;52.170;7.538;2022-08-19T05:40:00;21.08;;;10.75;;
56419;SDS011;42323;52.170;7.538;2022-08-19T05:42:27;19.13;;;11.52;;
56419;SDS011;42323;52.170;7.538;2022-08-19T05:44:54;21.67;;;11.02;;
56419;SDS011;42323;52.170;7.538;2022-08-19T05:47:23;17.30;;;10.80;;
56419;SDS011;42323;52.170;7.538;2022-08-19T05:49:50;15.48;;;9.57;;
56419;SDS011;42323;52.170;7.538;2022-08-19T05:52:18;17.27;;;11.50;;
56419;SDS011;42323;52.170;7.538;2022-08-19T05:54:52;19.42;;;12.00;;
56419;SDS011;42323;52.170;7.538;2022-08-19T05:57:22;20.50;;;11.60;;
56419;SDS011;42323;52.170;7.538;2022-08-19T05:59:50;19.60;;;12.07;;
56419;SDS011;42323;52.170;7.538;2022-08-19T06:02:25;21.77;;;11.07;;
56419;SDS011;42323;52.170;7.538;2022-08-19T06:04:53;19.65;;;11.02;;
56419;SDS011;42323;52.170;7.538;2022-08-19T06:07:20;20.08;;;11.40;;
56419;SDS011;42323;52.170;7.538;2022-08-19T06:09:47;18.25;;;11.70;;
56419;SDS011;42323;52.170;7.538;2022-08-19T06:12:26;20.33;;;11.18;;
56419;SDS011;42323;52.170;7.538;2022-08-19T06:14:58;20.25;;;12.18;;
56419;SDS011;42323;52.170;7.538;2022-08-19T06:17:28;19.17;;;11.45;;
56419;SDS011;42323;52.170;7.538;2022-08-19T06:19:57;20.63;;;12.02;;
56419;SDS011;42323;52.170;7.538;2022-08-19T06:22:25;17.10;;;11.23;;
56419;SDS011;42323;52.170;7.538;2022-08-19T06:24:53;18.98;;;11.13;;
56419;SDS011;42323;52.170;7.538;2022-08-19T06:27:21;25.15;;;11.70;;
56419;SDS011;42323;52.170;7.538;2022-08-19T06:29:49;16.73;;;9.88;;
56419;SDS011;42323;52.170;7.538;2022-08-19T06:32:16;20.65;;;11.38;;
56419;SDS011;42323;52.170;7.538;2022-08-19T06:34:45;18.42;;;10.35;;
56419;SDS011;42323;52.170;7.538;2022-08-19T06:37:13;20.38;;;10.10;;
56419;SDS011;42323;52.170;7.538;2022-08-19T06:39:40;20.98;;;10.23;;
56419;SDS011;42323;52.170;7.538;2022-08-19T06:42:09;15.77;;;10.75;;
56419;SDS011;42323;52.170;7.538;2022-08-19T06:44:40;15.70;;;9.32;;
56419;SDS011;42323;52.170;7.538;2022-08-19T06:47:14;20.50;;;10.13;;
56419;SDS011;42323;52.170;7.538;2022-08-19T06:49:54;15.25;;;9.13;;
56419;SDS011;42323;52.170;7.538;2022-08-19T06:52:31;14.68;;;9.02;;
56419;SDS011;42323;52.170;7.538;2022-08-19T06:55:02;14.10;;;8.80;;
56419;SDS011;42323;52.170;7.538;2022-08-19T06:57:32;13.48;;;8.75;;
56419;SDS011;42323;52.170;7.538;2022-08-19T06:59:59;14.35;;;9.00;;
56419;SDS011;42323;52.170;7.538;2022-08-19T07:02:26;15.50;;;8.85;;
56419;SDS011;42323;52.170;7.538;2022-08-19T07:04:53;14.70;;;8.40;;
56419;SDS011;42323;52.170;7.538;2022-08-19T07:07:24;13.23;;;7.75;;
56419;SDS011;42323;52.170;7.538;2022-08-19T07:09:51;13.30;;;7.97;;
56419;SDS011;42323;52.170;7.538;2022-08-19T07:12:26;12.45;;;8.13;;
56419;SDS011;42323;52.170;7.538;2022-08-19T07:15:05;12.13;;;7.47;;
56419;SDS011;42323;52.170;7.538;2022-08-19T07:17:32;11.65;;;7.75;;
56419;SDS011;42323;52.170;7.538;2022-08-19T07:20:01;10.43;;;7.05;;
56419;SDS011;42323;52.170;7.538;2022-08-19T07:22:33;12.95;;;7.63;;
56419;SDS011;42323;52.170;7.538;2022-08-19T07:25:01;11.77;;;7.70;;
56419;SDS011;42323;52.170;7.538;2022-08-19T07:27:30;11.75;;;7.82;;
56419;SDS011;42323;52.170;7.538;2022-08-19T07:29:59;10.52;;;7.90;;
56419;SDS011;42323;52.170;7.538;2022-08-19T07:32:26;12.18;;;7.32;;
56419;SDS011;42323;52.170;7.538;2022-08-19T07:34:53;11.93;;;7.47;;
56419;SDS011;42323;52.170;7.538;2022-08-19T07:37:23;10.70;;;7.50;;
56419;SDS011;42323;52.170;7.538;2022-08-19T07:39:58;13.68;;;6.93;;
56419;SDS011;42323;52.170;7.538;2022-08-19T07:42:26;9.98;;;7.43;;
56419;SDS011;42323;52.170;7.538;2022-08-19T07:44:54;10.13;;;7.32;;
56419;SDS011;42323;52.170;7.538;2022-08-19T07:47:21;9.25;;;6.60;;
56419;SDS011;42323;52.170;7.538;2022-08-19T07:50:09;9.65;;;6.15;;
56419;SDS011;42323;52.170;7.538;2022-08-19T07:52:38;13.40;;;7.45;;
56419;SDS011;42323;52.170;7.538;2022-08-19T07:55:07;7.40;;;5.68;;
56419;SDS011;42323;52.170;7.538;2022-08-19T07:57:56;7.97;;;5.78;;
56419;SDS011;42323;52.170;7.538;2022-08-19T08:00:23;8.43;;;6.28;;
56419;SDS011;42323;52.170;7.538;2022-08-19T08:02:51;8.55;;;6.10;;
56419;SDS011;42323;52.170;7.538;2022-08-19T08:05:21;9.00;;;5.63;;
56419;SDS011;42323;52.170;7.538;2022-08-19T08:08:10;9.30;;;5.47;;
56419;SDS011;42323;52.170;7.538;2022-08-19T08:10:55;5.78;;;4.82;;
56419;SDS011;42323;52.170;7.538;2022-08-19T08:13:23;9.38;;;5.75;;
56419;SDS011;42323;52.170;7.538;2022-08-19T08:15:51;6.97;;;5.38;;
56419;SDS011;42323;52.170;7.538;2022-08-19T08:18:21;8.05;;;5.18;;
56419;SDS011;42323;52.170;7.538;2022-08-19T08:20:53;6.85;;;4.78;;
56419;SDS011;42323;52.170;7.538;2022-08-19T08:23:21;6.20;;;4.90;;
56419;SDS011;42323;52.170;7.538;2022-08-19T08:25:50;7.05;;;4.97;;
56419;SDS011;42323;52.170;7.538;2022-08-19T08:28:19;6.47;;;4.95;;
56419;SDS011;42323;52.170;7.538;2022-08-19T08:30:47;7.00;;;5.13;;
56419;SDS011;42323;52.170;7.538;2022-08-19T08:33:19;8.43;;;5.20;;
56419;SDS011;42323;52.170;7.538;2022-08-19T08:36:09;9.27;;;5.72;;
56419;SDS011;42323;52.170;7.538;2022-08-19T08:38:37;7.85;;;6.03;;
56419;SDS011;42323;52.170;7.538;2022-08-19T08:43:59;8.45;;;5.45;;
56419;SDS011;42323;52.170;7.538;2022-08-19T08:46:42;5.63;;;4.80;;
56419;SDS011;42323;52.170;7.538;2022-08-19T08:49:24;10.18;;;6.95;;
56419;SDS011;42323;52.170;7.538;2022-08-19T08:52:03;7.65;;;5.13;;
56419;SDS011;42323;52.170;7.538;2022-08-19T08:54:43;6.70;;;5.28;;
56419;SDS011;42323;52.170;7.538;2022-08-19T08:57:19;7.50;;;5.32;;
56419;SDS011;42323;52.170;7.538;2022-08-19T08:59:48;6.05;;;4.57;;
56419;SDS011;42323;52.170;7.538;2022-08-19T09:02:18;6.97;;;5.40;;
56419;SDS011;42323;52.170;7.538;2022-08-19T09:04:45;10.77;;;6.40;;
56419;SDS011;42323;52.170;7.538;2022-08-19T09:07:21;7.30;;;5.72;;
56419;SDS011;42323;52.170;7.538;2022-08-19T09:16:07;6.93;;;5.47;;
56419;SDS011;42323;52.170;7.538;2022-08-19T09:18:45;6.03;;;5.10;;
56419;SDS011;42323;52.170;7.538;2022-08-19T09:21:20;7.00;;;5.70;;
56419;SDS011;42323;52.170;7.538;2022-08-19T09:24:00;7.13;;;4.63;;
56419;SDS011;42323;52.170;7.538;2022-08-19T09:26:31;5.32;;;4.70;;
56419;SDS011;42323;52.170;7.538;2022-08-19T09:29:18;5.38;;;4.72;;
56419;SDS011;42323;52.170;7.538;2022-08-19T09:31:48;5.78;;;4.40;;
56419;SDS011;42323;52.170;7.538;2022-08-19T09:34:15;5.15;;;4.10;;
56419;SDS011;42323;52.170;7.538;2022-08-19T09:36:47;5.35;;;4.13;;
56419;SDS011;42323;52.170;7.538;2022-08-19T09:39:20;6.03;;;4.30;;
56419;SDS011;42323;52.170;7.538;2022-08-19T09:41:47;7.05;;;4.38;;
56419;SDS011;42323;52.170;7.538;2022-08-19T09:44:16;4.75;;;4.13;;
56419;SDS011;42323;52.170;7.538;2022-08-19T09:46:44;5.80;;;3.63;;
56419;SDS011;42323;52.170;7.538;2022-08-19T09:49:14;6.10;;;3.50;;
56419;SDS011;42323;52.170;7.538;2022-08-19T09:51:43;4.63;;;3.58;;
56419;SDS011;42323;52.170;7.538;2022-08-19T09:54:16;5.45;;;3.35;;
56419;SDS011;42323;52.170;7.538;2022-08-19T09:56:50;4.65;;;3.53;;
56419;SDS011;42323;52.170;7.538;2022-08-19T09:59:18;6.57;;;4.10;;
56419;SDS011;42323;52.170;7.538;2022-08-19T10:01:45;4.47;;;3.67;;
56419;SDS011;42323;52.170;7.538;2022-08-19T10:04:13;3.50;;;3.20;;
56419;SDS011;42323;52.170;7.538;2022-08-19T10:06:48;5.30;;;3.73;;
56419;SDS011;42323;52.170;7.538;2022-08-19T10:09:19;4.50;;;3.45;;
56419;SDS011;42323;52.170;7.538;2022-08-19T10:11:59;4.22;;;3.53;;
56419;SDS011;42323;52.170;7.538;2022-08-19T10:14:28;4.07;;;3.22;;
56419;SDS011;42323;52.170;7.538;2022-08-19T10:16:56;5.00;;;3.75;;
56419;SDS011;42323;52.170;7.538;2022-08-19T10:19:24;3.70;;;3.22;;
56419;SDS011;42323;52.170;7.538;2022-08-19T10:21:52;4.32;;;3.35;;
56419;SDS011;42323;52.170;7.538;2022-08-19T10:24:26;4.22;;;3.55;;
56419;SDS011;42323;52.170;7.538;2022-08-19T10:26:54;4.05;;;3.00;;
56419;SDS011;42323;52.170;7.538;2022-08-19T10:29:25;3.50;;;3.20;;
56419;SDS011;42323;52.170;7.538;2022-08-19T10:31:59;3.67;;;3.15;;
56419;SDS011;42323;52.170;7.538;2022-08-19T10:34:29;3.67;;;2.85;;
56419;SDS011;42323;52.170;7.538;2022-08-19T10:36:57;5.20;;;3.28;;
56419;SDS011;42323;52.170;7.538;2022-08-19T10:39:30;3.38;;;2.92;;
56419;SDS011;42323;52.170;7.538;2022-08-19T10:42:09;4.57;;;3.72;;
56419;SDS011;42323;52.170;7.538;2022-08-19T10:44:40;3.53;;;3.22;;
56419;SDS011;42323;52.170;7.538;2022-08-19T10:47:07;3.90;;;3.20;;
56419;SDS011;42323;52.170;7.538;2022-08-19T10:49:49;2.83;;;2.53;;
56419;SDS011;42323;52.170;7.538;2022-08-19T10:52:38;2.92;;;2.30;;
56419;SDS011;42323;52.170;7.538;2022-08-19T10:55:16;3.33;;;2.35;;
56419;SDS011;42323;52.170;7.538;2022-08-19T10:58:03;2.50;;;2.13;;
56419;SDS011;42323;52.170;7.538;2022-08-19T11:00:36;2.75;;;2.35;;
56419;SDS011;42323;52.170;7.538;2022-08-19T11:03:03;4.90;;;2.22;;
56419;SDS011;42323;52.170;7.538;2022-08-19T11:05:30;3.22;;;2.30;;
56419;SDS011;42323;52.170;7.538;2022-08-19T11:08:06;3.47;;;2.60;;
56419;SDS011;42323;52.170;7.538;2022-08-19T11:10:49;3.90;;;2.55;;
56419;SDS011;42323;52.170;7.538;2022-08-19T11:13:23;3.90;;;2.80;;
56419;SDS011;42323;52.170;7.538;2022-08-19T11:16:01;3.65;;;3.00;;
56419;SDS011;42323;52.170;7.538;2022-08-19T11:18:38;5.07;;;3.05;;
56419;SDS011;42323;52.170;7.538;2022-08-19T11:23:48;4.03;;;3.15;;
56419;SDS011;42323;52.170;7.538;2022-08-19T11:26:18;3.70;;;3.28;;
56419;SDS011;42323;52.170;7.538;2022-08-19T11:28:47;4.75;;;3.47;;
56419;SDS011;42323;52.170;7.538;2022-08-19T11:31:16;3.00;;;2.70;;
56419;SDS011;42323;52.170;7.538;2022-08-19T11:33:44;3.10;;;2.70;;
56419;SDS011;42323;52.170;7.538;2022-08-19T11:36:13;4.68;;;2.70;;
56419;SDS011;42323;52.170;7.538;2022-08-19T11:38:41;3.65;;;3.28;;
56419;SDS011;42323;52.170;7.538;2022-08-19T11:41:08;3.70;;;3.35;;
56419;SDS011;42323;52.170;7.538;2022-08-19T11:43:35;4.38;;;3.67;;
56419;SDS011;42323;52.170;7.538;2022-08-19T11:46:04;4.18;;;3.60;;
56419;SDS011;42323;52.170;7.538;2022-08-19T11:48:33;4.78;;;3.53;;
56419;SDS011;42323;52.170;7.538;2022-08-19T11:51:03;4.75;;;3.40;;
56419;SDS011;42323;52.170;7.538;2022-08-19T11:53:33;4.25;;;3.22;;
56419;SDS011;42323;52.170;7.538;2022-08-19T11:56:00;4.30;;;3.90;;
56419;SDS011;42323;52.170;7.538;2022-08-19T11:58:28;4.10;;;3.60;;
56419;SDS011;42323;52.170;7.538;2022-08-19T12:00:58;4.60;;;3.10;;
56419;SDS011;42323;52.170;7.538;2022-08-19T12:03:25;6.45;;;3.55;;
56419;SDS011;42323;52.170;7.538;2022-08-19T12:05:52;3.70;;;3.28;;
56419;SDS011;42323;52.170;7.538;2022-08-19T12:08:19;4.78;;;3.58;;
56419;SDS011;42323;52.170;7.538;2022-08-19T12:10:46;5.20;;;3.65;;
56419;SDS011;42323;52.170;7.538;2022-08-19T12:13:14;3.72;;;3.13;;
56419;SDS011;42323;52.170;7.538;2022-08-19T12:15:45;5.72;;;4.22;;
56419;SDS011;42323;52.170;7.538;2022-08-19T12:18:13;7.05;;;4.88;;
56419;SDS011;42323;52.170;7.538;2022-08-19T12:20:41;4.60;;;4.10;;
56419;SDS011;42323;52.170;7.538;2022-08-19T12:23:09;4.47;;;3.30;;
56419;SDS011;42323;52.170;7.538;2022-08-19T12:25:37;4.25;;;3.75;;
56419;SDS011;42323;52.170;7.538;2022-08-19T12:28:09;4.55;;;3.22;;
56419;SDS011;42323;52.170;7.538;2022-08-19T12:30:37;6.03;;;3.80;;
56419;SDS011;42323;52.170;7.538;2022-08-19T12:33:04;4.55;;;3.70;;
56419;SDS011;42323;52.170;7.538;2022-08-19T12:35:31;7.45;;;3.28;;
56419;SDS011;42323;52.170;7.538;2022-08-19T12:37:58;3.47;;;3.15;;
56419;SDS011;42323;52.170;7.538;2022-08-19T12:40:26;4.55;;;3.45;;
56419;SDS011;42323;52.170;7.538;2022-08-19T12:42:53;3.85;;;2.85;;
56419;SDS011;42323;52.170;7.538;2022-08-19T12:45:20;4.93;;;3.15;;
56419;SDS011;42323;52.170;7.538;2022-08-19T12:47:48;3.05;;;2.75;;
56419;SDS011;42323;52.170;7.538;2022-08-19T12:50:20;4.53;;;2.80;;
56419;SDS011;42323;52.170;7.538;2022-08-19T12:52:48;3.47;;;2.92;;
56419;SDS011;42323;52.170;7.538;2022-08-19T12:55:15;3.95;;;3.05;;
56419;SDS011;42323;52.170;7.538;2022-08-19T12:57:44;3.28;;;2.97;;
56419;SDS011;42323;52.170;7.538;2022-08-19T13:00:13;4.82;;;2.90;;
56419;SDS011;42323;52.170;7.538;2022-08-19T13:02:44;4.68;;;3.35;;
56419;SDS011;42323;52.170;7.538;2022-08-19T13:05:14;3.28;;;2.90;;
56419;SDS011;42323;52.170;7.538;2022-08-19T13:07:43;5.45;;;3.00;;
56419;SDS011;42323;52.170;7.538;2022-08-19T13:10:11;4.28;;;3.88;;
56419;SDS011;42323;52.170;7.538;2022-08-19T13:12:42;5.22;;;3.50;;
56419;SDS011;42323;52.170;7.538;2022-08-19T13:15:10;6.80;;;3.67;;
56419;SDS011;42323;52.170;7.538;2022-08-19T13:17:37;4.82;;;4.28;;
56419;SDS011;42323;52.170;7.538;2022-08-19T13:20:06;5.10;;;4.60;;
56419;SDS011;42323;52.170;7.538;2022-08-19T13:22:35;5.55;;;3.90;;
56419;SDS011;42323;52.170;7.538;2022-08-19T13:25:03;5.28;;;4.22;;
56419;SDS011;42323;52.170;7.538;2022-08-19T13:27:31;4.78;;;4.28;;
56419;SDS011;42323;52.170;7.538;2022-08-19T13:29:59;5.75;;;4.68;;
56419;SDS011;42323;52.170;7.538;2022-08-19T13:32:45;4.40;;;4.00;;
56419;SDS011;42323;52.170;7.538;2022-08-19T13:35:31;5.20;;;4.70;;
56419;SDS011;42323;52.170;7.538;2022-08-19T13:37:59;5.80;;;4.28;;
56419;SDS011;42323;52.170;7.538;2022-08-19T13:40:27;5.05;;;4.43;;
56419;SDS011;42323;52.170;7.538;2022-08-19T13:42:55;5.18;;;4.25;;
56419;SDS011;42323;52.170;7.538;2022-08-19T13:45:23;5.97;;;4.20;;
56419;SDS011;42323;52.170;7.538;2022-08-19T13:47:52;6.40;;;4.90;;
56419;SDS011;42323;52.170;7.538;2022-08-19T13:50:29;6.05;;;5.05;;
56419;SDS011;42323;52.170;7.538;2022-08-19T13:53:00;6.50;;;5.05;;
56419;SDS011;42323;52.170;7.538;2022-08-19T13:55:28;8.45;;;5.18;;
56419;SDS011;42323;52.170;7.538;2022-08-19T13:57:56;6.88;;;5.15;;
56419;SDS011;42323;52.170;7.538;2022-08-19T14:00:26;6.40;;;5.13;;
56419;SDS011;42323;52.170;7.538;2022-08-19T14:02:55;7.55;;;5.05;;
56419;SDS011;42323;52.170;7.538;2022-08-19T14:05:23;6.18;;;5.05;;
56419;SDS011;42323;52.170;7.538;2022-08-19T14:07:51;8.02;;;5.68;;
56419;SDS011;42323;52.170;7.538;2022-08-19T14:10:19;6.55;;;5.00;;
56419;SDS011;42323;52.170;7.538;2022-08-19T14:12:47;7.57;;;4.97;;
56419;SDS011;42323;52.170;7.538;2022-08-19T14:15:14;6.88;;;5.38;;
56419;SDS011;42323;52.170;7.538;2022-08-19T14:17:43;7.15;;;5.50;;
56419;SDS011;42323;52.170;7.538;2022-08-19T14:20:11;6.40;;;4.80;;
56419;SDS011;42323;52.170;7.538;2022-08-19T14:22:44;7.00;;;5.30;;
56419;SDS011;42323;52.170;7.538;2022-08-19T14:25:14;6.85;;;4.95;;
56419;SDS011;42323;52.170;7.538;2022-08-19T14:27:43;6.95;;;5.28;;
56419;SDS011;42323;52.170;7.538;2022-08-19T14:30:12;5.45;;;4.80;;
56419;SDS011;42323;52.170;7.538;2022-08-19T14:32:42;7.57;;;5.70;;
56419;SDS011;42323;52.170;7.538;2022-08-19T14:35:12;5.38;;;4.88;;
56419;SDS011;42323;52.170;7.538;2022-08-19T14:37:42;8.48;;;5.65;;
56419;SDS011;42323;52.170;7.538;2022-08-19T14:40:12;6.47;;;5.10;;
56419;SDS011;42323;52.170;7.538;2022-08-19T14:42:40;6.50;;;5.40;;
56419;SDS011;42323;52.170;7.538;2022-08-19T14:45:08;6.25;;;4.90;;
56419;SDS011;42323;52.170;7.538;2022-08-19T14:47:37;6.93;;;4.80;;
56419;SDS011;42323;52.170;7.538;2022-08-19T14:50:07;7.28;;;4.50;;
56419;SDS011;42323;52.170;7.538;2022-08-19T14:52:43;7.00;;;5.13;;
56419;SDS011;42323;52.170;7.538;2022-08-19T14:55:10;6.90;;;5.13;;
56419;SDS011;42323;52.170;7.538;2022-08-19T14:57:37;6.50;;;5.30;;
56419;SDS011;42323;52.170;7.538;2022-08-19T15:00:04;8.43;;;4.63;;
56419;SDS011;42323;52.170;7.538;2022-08-19T15:02:31;6.15;;;4.68;;
56419;SDS011;42323;52.170;7.538;2022-08-19T15:05:01;5.85;;;4.68;;
56419;SDS011;42323;52.170;7.538;2022-08-19T15:07:28;5.30;;;4.40;;
56419;SDS011;42323;52.170;7.538;2022-08-19T15:09:55;12.98;;;4.47;;
56419;SDS011;42323;52.170;7.538;2022-08-19T15:12:25;6.50;;;4.32;;
56419;SDS011;42323;52.170;7.538;2022-08-19T15:14:52;5.20;;;4.03;;